sensor_id;sensor_type;location;lat;lon;timestamp;P1;durP1;ratioP1;P2;durP2;ratioP2
41817;SDS011;27493;51.730;5.294;2022-08-19T00:00:37;13.00;;;8.57;;
41817;SDS011;27493;51.730;5.294;2022-08-19T00:03:03;17.53;;;10.30;;
41817;SDS011;27493;51.730;5.294;2022-08-19T00:05:28;16.40;;;9.33;;
41817;SDS011;27493;51.730;5.294;2022-08-19T00:07:54;13.50;;;8.53;;
41817;SDS011;27493;51.730;5.294;2022-08-19T00:10:19;18.73;;;10.80;;
41817;SDS011;27493;51.730;5.294;2022-08-19T00:12:44;16.30;;;9.60;;
41817;SDS011;27493;51.730;5.294;2022-08-19T00:15:11;13.17;;;9.00;;
41817;SDS011;27493;51.730;5.294;2022-08-19T00:17:41;14.63;;;9.50;;
41817;SDS011;27493;51.730;5.294;2022-08-19T00:20:07;18.27;;;10.23;;
41817;SDS011;27493;51.730;5.294;2022-08-19T00:22:35;16.63;;;10.00;;
41817;SDS011;27493;51.730;5.294;2022-08-19T00:25:00;16.77;;;9.67;;
41817;SDS011;27493;51.730;5.294;2022-08-19T00:27:26;18.10;;;10.30;;
41817;SDS011;27493;51.730;5.294;2022-08-19T00:29:51;14.67;;;9.13;;
41817;SDS011;27493;51.730;5.294;2022-08-19T00:32:16;16.93;;;10.37;;
41817;SDS011;27493;51.730;5.294;2022-08-19T00:34:41;15.37;;;10.20;;
41817;SDS011;27493;51.730;5.294;2022-08-19T00:37:06;17.23;;;10.10;;
41817;SDS011;27493;51.730;5.294;2022-08-19T00:39:32;15.00;;;9.40;;
41817;SDS011;27493;51.730;5.294;2022-08-19T00:41:57;17.70;;;10.53;;
41817;SDS011;27493;51.730;5.294;2022-08-19T00:44:26;18.43;;;10.70;;
41817;SDS011;27493;51.730;5.294;2022-08-19T00:46:52;18.80;;;10.30;;
41817;SDS011;27493;51.730;5.294;2022-08-19T00:49:29;19.13;;;10.03;;
41817;SDS011;27493;51.730;5.294;2022-08-19T00:52:00;18.67;;;10.50;;
41817;SDS011;27493;51.730;5.294;2022-08-19T00:54:26;15.83;;;10.43;;
41817;SDS011;27493;51.730;5.294;2022-08-19T00:56:51;18.83;;;11.00;;
41817;SDS011;27493;51.730;5.294;2022-08-19T00:59:17;17.63;;;10.30;;
41817;SDS011;27493;51.730;5.294;2022-08-19T01:01:43;18.10;;;10.20;;
41817;SDS011;27493;51.730;5.294;2022-08-19T01:04:09;19.90;;;11.10;;
41817;SDS011;27493;51.730;5.294;2022-08-19T01:06:37;21.33;;;10.80;;
41817;SDS011;27493;51.730;5.294;2022-08-19T01:09:04;20.33;;;11.23;;
41817;SDS011;27493;51.730;5.294;2022-08-19T01:11:30;19.07;;;11.07;;
41817;SDS011;27493;51.730;5.294;2022-08-19T01:13:56;17.07;;;10.53;;
41817;SDS011;27493;51.730;5.294;2022-08-19T01:16:22;20.60;;;11.47;;
41817;SDS011;27493;51.730;5.294;2022-08-19T01:18:49;20.00;;;10.53;;
41817;SDS011;27493;51.730;5.294;2022-08-19T01:21:31;25.43;;;12.63;;
41817;SDS011;27493;51.730;5.294;2022-08-19T01:23:57;22.83;;;11.67;;
41817;SDS011;27493;51.730;5.294;2022-08-19T01:26:23;20.53;;;11.47;;
41817;SDS011;27493;51.730;5.294;2022-08-19T01:28:49;21.73;;;12.07;;
41817;SDS011;27493;51.730;5.294;2022-08-19T01:31:17;21.30;;;12.03;;
41817;SDS011;27493;51.730;5.294;2022-08-19T01:33:43;25.17;;;12.70;;
41817;SDS011;27493;51.730;5.294;2022-08-19T01:36:11;21.67;;;11.33;;
41817;SDS011;27493;51.730;5.294;2022-08-19T01:38:38;23.40;;;13.07;;
41817;SDS011;27493;51.730;5.294;2022-08-19T01:41:04;24.13;;;12.63;;
41817;SDS011;27493;51.730;5.294;2022-08-19T01:43:29;22.57;;;12.10;;
41817;SDS011;27493;51.730;5.294;2022-08-19T01:45:54;22.33;;;11.60;;
41817;SDS011;27493;51.730;5.294;2022-08-19T01:48:19;23.27;;;12.47;;
41817;SDS011;27493;51.730;5.294;2022-08-19T01:50:45;21.23;;;11.93;;
41817;SDS011;27493;51.730;5.294;2022-08-19T01:53:10;22.67;;;11.67;;
41817;SDS011;27493;51.730;5.294;2022-08-19T01:55:37;23.93;;;12.33;;
41817;SDS011;27493;51.730;5.294;2022-08-19T01:58:03;25.00;;;13.30;;
41817;SDS011;27493;51.730;5.294;2022-08-19T02:00:30;25.40;;;12.80;;
41817;SDS011;27493;51.730;5.294;2022-08-19T02:02:56;27.73;;;13.70;;
41817;SDS011;27493;51.730;5.294;2022-08-19T02:05:21;23.77;;;12.03;;
41817;SDS011;27493;51.730;5.294;2022-08-19T02:07:47;22.90;;;12.87;;
41817;SDS011;27493;51.730;5.294;2022-08-19T02:10:13;24.03;;;12.93;;
41817;SDS011;27493;51.730;5.294;2022-08-19T02:12:39;25.70;;;12.60;;
41817;SDS011;27493;51.730;5.294;2022-08-19T02:15:04;24.63;;;12.97;;
41817;SDS011;27493;51.730;5.294;2022-08-19T02:17:31;22.83;;;12.50;;
41817;SDS011;27493;51.730;5.294;2022-08-19T02:19:56;23.17;;;12.67;;
41817;SDS011;27493;51.730;5.294;2022-08-19T02:22:22;25.37;;;12.57;;
41817;SDS011;27493;51.730;5.294;2022-08-19T02:24:47;24.60;;;12.93;;
41817;SDS011;27493;51.730;5.294;2022-08-19T02:27:13;26.07;;;12.53;;
41817;SDS011;27493;51.730;5.294;2022-08-19T02:29:38;24.80;;;12.87;;
41817;SDS011;27493;51.730;5.294;2022-08-19T02:32:03;21.87;;;12.47;;
41817;SDS011;27493;51.730;5.294;2022-08-19T02:34:29;22.50;;;12.93;;
41817;SDS011;27493;51.730;5.294;2022-08-19T02:36:54;20.90;;;11.63;;
41817;SDS011;27493;51.730;5.294;2022-08-19T02:39:19;26.87;;;12.40;;
41817;SDS011;27493;51.730;5.294;2022-08-19T02:41:44;22.33;;;12.53;;
41817;SDS011;27493;51.730;5.294;2022-08-19T02:44:10;23.77;;;11.47;;
41817;SDS011;27493;51.730;5.294;2022-08-19T02:46:35;20.30;;;11.63;;
41817;SDS011;27493;51.730;5.294;2022-08-19T02:49:02;24.23;;;12.10;;
41817;SDS011;27493;51.730;5.294;2022-08-19T02:51:30;19.33;;;11.40;;
41817;SDS011;27493;51.730;5.294;2022-08-19T02:53:55;20.63;;;11.93;;
41817;SDS011;27493;51.730;5.294;2022-08-19T02:56:21;25.00;;;11.67;;
41817;SDS011;27493;51.730;5.294;2022-08-19T02:58:46;22.60;;;12.30;;
41817;SDS011;27493;51.730;5.294;2022-08-19T03:01:19;22.57;;;11.77;;
41817;SDS011;27493;51.730;5.294;2022-08-19T03:03:45;17.73;;;10.13;;
41817;SDS011;27493;51.730;5.294;2022-08-19T03:06:13;18.37;;;10.87;;
41817;SDS011;27493;51.730;5.294;2022-08-19T03:08:39;20.03;;;12.37;;
41817;SDS011;27493;51.730;5.294;2022-08-19T03:11:04;20.03;;;11.67;;
41817;SDS011;27493;51.730;5.294;2022-08-19T03:13:30;20.27;;;11.00;;
41817;SDS011;27493;51.730;5.294;2022-08-19T03:15:55;21.17;;;11.63;;
41817;SDS011;27493;51.730;5.294;2022-08-19T03:18:20;19.17;;;10.20;;
41817;SDS011;27493;51.730;5.294;2022-08-19T03:20:47;17.03;;;10.57;;
41817;SDS011;27493;51.730;5.294;2022-08-19T03:23:12;19.10;;;11.33;;
41817;SDS011;27493;51.730;5.294;2022-08-19T03:25:39;18.27;;;10.97;;
41817;SDS011;27493;51.730;5.294;2022-08-19T03:28:05;20.50;;;10.43;;
41817;SDS011;27493;51.730;5.294;2022-08-19T03:30:31;17.90;;;10.73;;
41817;SDS011;27493;51.730;5.294;2022-08-19T03:32:57;19.63;;;11.30;;
41817;SDS011;27493;51.730;5.294;2022-08-19T03:35:22;17.20;;;10.57;;
41817;SDS011;27493;51.730;5.294;2022-08-19T03:37:47;19.20;;;10.33;;
41817;SDS011;27493;51.730;5.294;2022-08-19T03:40:12;20.03;;;10.40;;
41817;SDS011;27493;51.730;5.294;2022-08-19T03:42:37;20.40;;;11.23;;
41817;SDS011;27493;51.730;5.294;2022-08-19T03:45:03;20.57;;;11.00;;
41817;SDS011;27493;51.730;5.294;2022-08-19T03:47:28;19.30;;;10.80;;
41817;SDS011;27493;51.730;5.294;2022-08-19T03:49:55;19.03;;;11.07;;
41817;SDS011;27493;51.730;5.294;2022-08-19T03:52:20;22.87;;;11.93;;
41817;SDS011;27493;51.730;5.294;2022-08-19T03:54:45;16.10;;;10.17;;
41817;SDS011;27493;51.730;5.294;2022-08-19T03:57:11;17.73;;;10.23;;
41817;SDS011;27493;51.730;5.294;2022-08-19T03:59:37;18.80;;;10.63;;
41817;SDS011;27493;51.730;5.294;2022-08-19T04:02:05;19.23;;;10.30;;
41817;SDS011;27493;51.730;5.294;2022-08-19T04:04:33;17.93;;;11.00;;
41817;SDS011;27493;51.730;5.294;2022-08-19T04:06:58;19.03;;;11.27;;
41817;SDS011;27493;51.730;5.294;2022-08-19T04:09:23;24.67;;;11.23;;
41817;SDS011;27493;51.730;5.294;2022-08-19T04:11:50;18.83;;;11.20;;
41817;SDS011;27493;51.730;5.294;2022-08-19T04:14:19;21.83;;;11.47;;
41817;SDS011;27493;51.730;5.294;2022-08-19T04:16:45;20.07;;;11.13;;
41817;SDS011;27493;51.730;5.294;2022-08-19T04:19:11;22.53;;;11.27;;
41817;SDS011;27493;51.730;5.294;2022-08-19T04:21:37;21.00;;;11.27;;
41817;SDS011;27493;51.730;5.294;2022-08-19T04:24:02;23.13;;;11.77;;
41817;SDS011;27493;51.730;5.294;2022-08-19T04:26:29;20.87;;;11.67;;
41817;SDS011;27493;51.730;5.294;2022-08-19T04:28:57;23.00;;;11.80;;
41817;SDS011;27493;51.730;5.294;2022-08-19T04:31:23;23.97;;;12.30;;
41817;SDS011;27493;51.730;5.294;2022-08-19T04:33:52;24.43;;;12.63;;
41817;SDS011;27493;51.730;5.294;2022-08-19T04:36:23;21.73;;;12.37;;
41817;SDS011;27493;51.730;5.294;2022-08-19T04:38:49;27.10;;;12.70;;
41817;SDS011;27493;51.730;5.294;2022-08-19T04:41:15;25.80;;;12.97;;
41817;SDS011;27493;51.730;5.294;2022-08-19T04:43:59;28.97;;;12.90;;
41817;SDS011;27493;51.730;5.294;2022-08-19T04:46:24;26.07;;;13.37;;
41817;SDS011;27493;51.730;5.294;2022-08-19T04:48:49;27.07;;;13.37;;
41817;SDS011;27493;51.730;5.294;2022-08-19T04:51:15;35.77;;;14.50;;
41817;SDS011;27493;51.730;5.294;2022-08-19T04:53:41;28.23;;;14.13;;
41817;SDS011;27493;51.730;5.294;2022-08-19T04:56:13;27.50;;;13.67;;
41817;SDS011;27493;51.730;5.294;2022-08-19T04:58:39;29.40;;;13.80;;
41817;SDS011;27493;51.730;5.294;2022-08-19T05:01:07;33.70;;;15.47;;
41817;SDS011;27493;51.730;5.294;2022-08-19T05:03:33;28.67;;;14.17;;
41817;SDS011;27493;51.730;5.294;2022-08-19T05:06:06;32.33;;;14.67;;
41817;SDS011;27493;51.730;5.294;2022-08-19T05:08:33;32.17;;;15.33;;
41817;SDS011;27493;51.730;5.294;2022-08-19T05:10:58;34.57;;;14.97;;
41817;SDS011;27493;51.730;5.294;2022-08-19T05:13:24;36.63;;;15.37;;
41817;SDS011;27493;51.730;5.294;2022-08-19T05:15:57;31.67;;;15.20;;
41817;SDS011;27493;51.730;5.294;2022-08-19T05:18:23;30.10;;;14.93;;
41817;SDS011;27493;51.730;5.294;2022-08-19T05:21:08;30.57;;;14.67;;
41817;SDS011;27493;51.730;5.294;2022-08-19T05:23:52;29.70;;;14.50;;
41817;SDS011;27493;51.730;5.294;2022-08-19T05:26:17;32.67;;;14.40;;
41817;SDS011;27493;51.730;5.294;2022-08-19T05:28:42;33.43;;;14.80;;
41817;SDS011;27493;51.730;5.294;2022-08-19T05:31:08;33.67;;;15.10;;
41817;SDS011;27493;51.730;5.294;2022-08-19T05:33:33;30.40;;;14.70;;
41817;SDS011;27493;51.730;5.294;2022-08-19T05:35:58;27.47;;;13.70;;
41817;SDS011;27493;51.730;5.294;2022-08-19T05:38:24;29.30;;;14.37;;
41817;SDS011;27493;51.730;5.294;2022-08-19T05:40:51;29.27;;;15.07;;
41817;SDS011;27493;51.730;5.294;2022-08-19T05:43:16;33.37;;;15.00;;
41817;SDS011;27493;51.730;5.294;2022-08-19T05:45:42;31.47;;;14.97;;
41817;SDS011;27493;51.730;5.294;2022-08-19T05:48:08;29.37;;;14.60;;
41817;SDS011;27493;51.730;5.294;2022-08-19T05:50:36;31.67;;;14.23;;
41817;SDS011;27493;51.730;5.294;2022-08-19T05:53:01;30.80;;;14.50;;
41817;SDS011;27493;51.730;5.294;2022-08-19T05:55:26;32.70;;;15.50;;
41817;SDS011;27493;51.730;5.294;2022-08-19T05:57:51;36.30;;;14.47;;
41817;SDS011;27493;51.730;5.294;2022-08-19T06:00:16;33.07;;;13.97;;
41817;SDS011;27493;51.730;5.294;2022-08-19T06:02:42;31.67;;;13.33;;
41817;SDS011;27493;51.730;5.294;2022-08-19T06:05:07;31.30;;;14.43;;
41817;SDS011;27493;51.730;5.294;2022-08-19T06:07:34;28.87;;;13.67;;
41817;SDS011;27493;51.730;5.294;2022-08-19T06:09:59;28.03;;;13.00;;
41817;SDS011;27493;51.730;5.294;2022-08-19T06:12:24;27.23;;;12.50;;
41817;SDS011;27493;51.730;5.294;2022-08-19T06:14:53;29.33;;;12.93;;
41817;SDS011;27493;51.730;5.294;2022-08-19T06:17:19;32.07;;;14.70;;
41817;SDS011;27493;51.730;5.294;2022-08-19T06:19:46;28.77;;;13.93;;
41817;SDS011;27493;51.730;5.294;2022-08-19T06:22:11;27.83;;;13.63;;
41817;SDS011;27493;51.730;5.294;2022-08-19T06:24:37;28.17;;;14.50;;
41817;SDS011;27493;51.730;5.294;2022-08-19T06:27:03;30.17;;;14.53;;
41817;SDS011;27493;51.730;5.294;2022-08-19T06:29:30;29.80;;;13.77;;
41817;SDS011;27493;51.730;5.294;2022-08-19T06:31:56;28.73;;;13.90;;
41817;SDS011;27493;51.730;5.294;2022-08-19T06:34:22;33.60;;;13.80;;
41817;SDS011;27493;51.730;5.294;2022-08-19T06:36:48;30.03;;;13.83;;
41817;SDS011;27493;51.730;5.294;2022-08-19T06:39:16;31.87;;;14.17;;
41817;SDS011;27493;51.730;5.294;2022-08-19T06:41:43;36.30;;;14.73;;
41817;SDS011;27493;51.730;5.294;2022-08-19T06:44:09;43.87;;;15.67;;
41817;SDS011;27493;51.730;5.294;2022-08-19T06:46:35;35.37;;;14.57;;
41817;SDS011;27493;51.730;5.294;2022-08-19T06:49:00;39.10;;;14.27;;
41817;SDS011;27493;51.730;5.294;2022-08-19T06:51:26;35.47;;;14.93;;
41817;SDS011;27493;51.730;5.294;2022-08-19T06:53:52;33.17;;;14.07;;
41817;SDS011;27493;51.730;5.294;2022-08-19T06:56:19;29.87;;;14.13;;
41817;SDS011;27493;51.730;5.294;2022-08-19T06:58:45;32.70;;;14.27;;
41817;SDS011;27493;51.730;5.294;2022-08-19T07:01:11;28.77;;;13.57;;
41817;SDS011;27493;51.730;5.294;2022-08-19T07:03:37;32.53;;;14.67;;
41817;SDS011;27493;51.730;5.294;2022-08-19T07:06:08;29.17;;;13.37;;
41817;SDS011;27493;51.730;5.294;2022-08-19T07:08:34;30.30;;;13.37;;
41817;SDS011;27493;51.730;5.294;2022-08-19T07:11:01;31.80;;;13.73;;
41817;SDS011;27493;51.730;5.294;2022-08-19T07:13:26;30.20;;;12.83;;
41817;SDS011;27493;51.730;5.294;2022-08-19T07:15:52;32.20;;;14.37;;
41817;SDS011;27493;51.730;5.294;2022-08-19T07:18:18;28.00;;;12.23;;
41817;SDS011;27493;51.730;5.294;2022-08-19T07:20:44;35.57;;;12.33;;
41817;SDS011;27493;51.730;5.294;2022-08-19T07:23:10;24.40;;;12.33;;
41817;SDS011;27493;51.730;5.294;2022-08-19T07:25:38;27.33;;;12.50;;
41817;SDS011;27493;51.730;5.294;2022-08-19T07:28:04;34.53;;;13.23;;
41817;SDS011;27493;51.730;5.294;2022-08-19T07:30:29;28.23;;;12.10;;
41817;SDS011;27493;51.730;5.294;2022-08-19T07:32:54;25.23;;;12.77;;
41817;SDS011;27493;51.730;5.294;2022-08-19T07:35:21;31.10;;;12.67;;
41817;SDS011;27493;51.730;5.294;2022-08-19T07:37:48;28.80;;;12.53;;
41817;SDS011;27493;51.730;5.294;2022-08-19T07:40:14;33.03;;;13.47;;
41817;SDS011;27493;51.730;5.294;2022-08-19T07:42:39;34.20;;;14.30;;
41817;SDS011;27493;51.730;5.294;2022-08-19T07:45:05;28.97;;;12.70;;
41817;SDS011;27493;51.730;5.294;2022-08-19T07:47:30;33.40;;;12.60;;
41817;SDS011;27493;51.730;5.294;2022-08-19T07:49:56;28.90;;;12.80;;
41817;SDS011;27493;51.730;5.294;2022-08-19T07:52:21;25.97;;;11.60;;
41817;SDS011;27493;51.730;5.294;2022-08-19T07:54:47;32.30;;;12.83;;
41817;SDS011;27493;51.730;5.294;2022-08-19T07:57:12;25.50;;;12.10;;
41817;SDS011;27493;51.730;5.294;2022-08-19T07:59:37;28.87;;;13.73;;
41817;SDS011;27493;51.730;5.294;2022-08-19T08:02:21;29.43;;;13.93;;
41817;SDS011;27493;51.730;5.294;2022-08-19T08:04:46;25.87;;;12.63;;
41817;SDS011;27493;51.730;5.294;2022-08-19T08:07:30;27.10;;;11.93;;
41817;SDS011;27493;51.730;5.294;2022-08-19T08:10:14;28.50;;;12.17;;
41817;SDS011;27493;51.730;5.294;2022-08-19T08:12:39;26.30;;;12.90;;
41817;SDS011;27493;51.730;5.294;2022-08-19T08:15:13;20.63;;;11.37;;
41817;SDS011;27493;51.730;5.294;2022-08-19T08:17:41;22.73;;;11.83;;
41817;SDS011;27493;51.730;5.294;2022-08-19T08:20:07;23.30;;;11.63;;
41817;SDS011;27493;51.730;5.294;2022-08-19T08:22:32;25.23;;;11.53;;
41817;SDS011;27493;51.730;5.294;2022-08-19T08:25:17;22.23;;;11.90;;
41817;SDS011;27493;51.730;5.294;2022-08-19T08:27:44;23.37;;;11.47;;
41817;SDS011;27493;51.730;5.294;2022-08-19T08:30:11;25.50;;;12.00;;
41817;SDS011;27493;51.730;5.294;2022-08-19T08:32:37;24.13;;;11.70;;
41817;SDS011;27493;51.730;5.294;2022-08-19T08:35:04;26.63;;;12.30;;
41817;SDS011;27493;51.730;5.294;2022-08-19T08:37:29;27.20;;;12.53;;
41817;SDS011;27493;51.730;5.294;2022-08-19T08:39:54;28.50;;;12.17;;
41817;SDS011;27493;51.730;5.294;2022-08-19T08:42:25;25.57;;;12.57;;
41817;SDS011;27493;51.730;5.294;2022-08-19T08:44:58;25.43;;;11.83;;
41817;SDS011;27493;51.730;5.294;2022-08-19T08:47:25;26.33;;;12.90;;
41817;SDS011;27493;51.730;5.294;2022-08-19T08:49:53;23.03;;;11.70;;
41817;SDS011;27493;51.730;5.294;2022-08-19T08:52:24;25.17;;;11.97;;
41817;SDS011;27493;51.730;5.294;2022-08-19T08:54:53;23.60;;;11.93;;
41817;SDS011;27493;51.730;5.294;2022-08-19T08:57:20;26.93;;;12.17;;
41817;SDS011;27493;51.730;5.294;2022-08-19T08:59:47;20.63;;;10.63;;
41817;SDS011;27493;51.730;5.294;2022-08-19T09:02:15;25.00;;;11.80;;
41817;SDS011;27493;51.730;5.294;2022-08-19T09:04:41;24.63;;;11.53;;
41817;SDS011;27493;51.730;5.294;2022-08-19T09:09:39;28.07;;;12.90;;
41817;SDS011;27493;51.730;5.294;2022-08-19T09:14:35;21.70;;;10.77;;
41817;SDS011;27493;51.730;5.294;2022-08-19T09:17:03;22.33;;;11.00;;
41817;SDS011;27493;51.730;5.294;2022-08-19T09:19:33;21.83;;;11.97;;
41817;SDS011;27493;51.730;5.294;2022-08-19T09:21:58;21.83;;;11.10;;
41817;SDS011;27493;51.730;5.294;2022-08-19T09:24:25;21.93;;;11.33;;
41817;SDS011;27493;51.730;5.294;2022-08-19T09:26:50;24.07;;;11.93;;
41817;SDS011;27493;51.730;5.294;2022-08-19T09:29:15;19.67;;;10.63;;
41817;SDS011;27493;51.730;5.294;2022-08-19T09:31:40;21.10;;;11.43;;
41817;SDS011;27493;51.730;5.294;2022-08-19T09:34:06;23.13;;;12.30;;
41817;SDS011;27493;51.730;5.294;2022-08-19T09:36:31;21.57;;;11.63;;
41817;SDS011;27493;51.730;5.294;2022-08-19T09:39:03;19.53;;;10.47;;
41817;SDS011;27493;51.730;5.294;2022-08-19T09:41:29;19.45;;;11.02;;
41817;SDS011;27493;51.730;5.294;2022-08-19T09:43:55;18.93;;;10.97;;
41817;SDS011;27493;51.730;5.294;2022-08-19T09:46:21;20.50;;;10.70;;
41817;SDS011;27493;51.730;5.294;2022-08-19T09:48:47;24.15;;;11.75;;
41817;SDS011;27493;51.730;5.294;2022-08-19T09:51:14;26.52;;;12.75;;
41817;SDS011;27493;51.730;5.294;2022-08-19T09:53:40;24.23;;;11.95;;
41817;SDS011;27493;51.730;5.294;2022-08-19T09:56:06;24.98;;;12.77;;
41817;SDS011;27493;51.730;5.294;2022-08-19T09:58:32;27.25;;;11.95;;
41817;SDS011;27493;51.730;5.294;2022-08-19T10:00:57;24.77;;;12.02;;
41817;SDS011;27493;51.730;5.294;2022-08-19T10:03:23;23.27;;;11.00;;
41817;SDS011;27493;51.730;5.294;2022-08-19T10:05:49;21.58;;;11.43;;
41817;SDS011;27493;51.730;5.294;2022-08-19T10:08:15;24.15;;;11.80;;
41817;SDS011;27493;51.730;5.294;2022-08-19T10:10:40;19.73;;;11.55;;
41817;SDS011;27493;51.730;5.294;2022-08-19T10:13:08;20.77;;;11.88;;
41817;SDS011;27493;51.730;5.294;2022-08-19T10:15:34;19.92;;;11.15;;
41817;SDS011;27493;51.730;5.294;2022-08-19T10:17:59;22.08;;;11.57;;
41817;SDS011;27493;51.730;5.294;2022-08-19T10:20:24;24.63;;;12.07;;
41817;SDS011;27493;51.730;5.294;2022-08-19T10:22:50;20.17;;;10.82;;
41817;SDS011;27493;51.730;5.294;2022-08-19T10:25:15;16.85;;;10.35;;
41817;SDS011;27493;51.730;5.294;2022-08-19T10:27:41;23.83;;;11.70;;
41817;SDS011;27493;51.730;5.294;2022-08-19T10:30:06;23.67;;;11.82;;
41817;SDS011;27493;51.730;5.294;2022-08-19T10:32:33;20.98;;;12.02;;
41817;SDS011;27493;51.730;5.294;2022-08-19T10:34:59;25.90;;;12.20;;
41817;SDS011;27493;51.730;5.294;2022-08-19T10:37:24;19.92;;;11.77;;
41817;SDS011;27493;51.730;5.294;2022-08-19T10:39:49;21.05;;;12.18;;
41817;SDS011;27493;51.730;5.294;2022-08-19T10:42:14;19.83;;;11.68;;
41817;SDS011;27493;51.730;5.294;2022-08-19T10:44:41;18.98;;;12.70;;
41817;SDS011;27493;51.730;5.294;2022-08-19T10:47:06;24.10;;;13.18;;
41817;SDS011;27493;51.730;5.294;2022-08-19T10:49:31;22.50;;;13.10;;
41817;SDS011;27493;51.730;5.294;2022-08-19T10:52:17;23.80;;;13.48;;
41817;SDS011;27493;51.730;5.294;2022-08-19T10:55:01;24.38;;;13.35;;
41817;SDS011;27493;51.730;5.294;2022-08-19T10:57:45;21.60;;;12.88;;
41817;SDS011;27493;51.730;5.294;2022-08-19T11:00:10;22.77;;;12.52;;
41817;SDS011;27493;51.730;5.294;2022-08-19T11:02:36;19.83;;;12.13;;
41817;SDS011;27493;51.730;5.294;2022-08-19T11:05:01;22.88;;;12.90;;
41817;SDS011;27493;51.730;5.294;2022-08-19T11:07:26;26.48;;;13.43;;
41817;SDS011;27493;51.730;5.294;2022-08-19T11:09:51;23.27;;;13.15;;
41817;SDS011;27493;51.730;5.294;2022-08-19T11:12:17;19.38;;;11.32;;
41817;SDS011;27493;51.730;5.294;2022-08-19T11:14:42;22.58;;;13.13;;
41817;SDS011;27493;51.730;5.294;2022-08-19T11:17:07;21.75;;;13.27;;
41817;SDS011;27493;51.730;5.294;2022-08-19T11:19:32;23.85;;;14.00;;
41817;SDS011;27493;51.730;5.294;2022-08-19T11:21:58;25.77;;;13.55;;
41817;SDS011;27493;51.730;5.294;2022-08-19T11:24:26;25.90;;;14.40;;
41817;SDS011;27493;51.730;5.294;2022-08-19T11:26:53;20.98;;;12.40;;
41817;SDS011;27493;51.730;5.294;2022-08-19T11:29:23;21.30;;;12.45;;
41817;SDS011;27493;51.730;5.294;2022-08-19T11:31:52;23.83;;;13.13;;
41817;SDS011;27493;51.730;5.294;2022-08-19T11:34:19;20.75;;;11.93;;
41817;SDS011;27493;51.730;5.294;2022-08-19T11:36:45;19.80;;;13.15;;
41817;SDS011;27493;51.730;5.294;2022-08-19T11:39:13;19.42;;;11.77;;
41817;SDS011;27493;51.730;5.294;2022-08-19T11:41:38;18.13;;;11.30;;
41817;SDS011;27493;51.730;5.294;2022-08-19T11:44:04;20.77;;;12.30;;
41817;SDS011;27493;51.730;5.294;2022-08-19T11:46:30;19.58;;;11.43;;
41817;SDS011;27493;51.730;5.294;2022-08-19T11:48:59;19.10;;;12.30;;
41817;SDS011;27493;51.730;5.294;2022-08-19T11:51:25;18.95;;;12.05;;
41817;SDS011;27493;51.730;5.294;2022-08-19T11:53:51;16.42;;;10.75;;
41817;SDS011;27493;51.730;5.294;2022-08-19T11:56:17;19.73;;;10.77;;
41817;SDS011;27493;51.730;5.294;2022-08-19T11:58:43;17.77;;;11.02;;
41817;SDS011;27493;51.730;5.294;2022-08-19T12:01:09;15.55;;;10.40;;
41817;SDS011;27493;51.730;5.294;2022-08-19T12:03:37;17.02;;;10.73;;
41817;SDS011;27493;51.730;5.294;2022-08-19T12:06:03;16.98;;;10.57;;
41817;SDS011;27493;51.730;5.294;2022-08-19T12:08:28;17.25;;;10.48;;
41817;SDS011;27493;51.730;5.294;2022-08-19T12:10:54;14.32;;;9.55;;
41817;SDS011;27493;51.730;5.294;2022-08-19T12:13:19;12.13;;;7.88;;
41817;SDS011;27493;51.730;5.294;2022-08-19T12:15:45;14.70;;;8.57;;
41817;SDS011;27493;51.730;5.294;2022-08-19T12:18:10;11.20;;;7.32;;
41817;SDS011;27493;51.730;5.294;2022-08-19T12:20:36;11.75;;;6.82;;
41817;SDS011;27493;51.730;5.294;2022-08-19T12:23:02;9.50;;;6.55;;
41817;SDS011;27493;51.730;5.294;2022-08-19T12:25:27;9.35;;;5.68;;
41817;SDS011;27493;51.730;5.294;2022-08-19T12:27:53;8.25;;;6.15;;
41817;SDS011;27493;51.730;5.294;2022-08-19T12:30:18;10.15;;;6.68;;
41817;SDS011;27493;51.730;5.294;2022-08-19T12:32:43;8.70;;;6.10;;
41817;SDS011;27493;51.730;5.294;2022-08-19T12:35:08;8.90;;;5.90;;
41817;SDS011;27493;51.730;5.294;2022-08-19T12:37:35;9.82;;;6.78;;
41817;SDS011;27493;51.730;5.294;2022-08-19T12:40:00;11.95;;;7.13;;
41817;SDS011;27493;51.730;5.294;2022-08-19T12:42:25;10.05;;;6.78;;
41817;SDS011;27493;51.730;5.294;2022-08-19T12:44:51;11.77;;;7.55;;
41817;SDS011;27493;51.730;5.294;2022-08-19T12:47:17;14.05;;;8.07;;
41817;SDS011;27493;51.730;5.294;2022-08-19T12:49:42;12.48;;;7.32;;
41817;SDS011;27493;51.730;5.294;2022-08-19T12:52:09;8.15;;;6.40;;
41817;SDS011;27493;51.730;5.294;2022-08-19T12:54:35;11.48;;;6.30;;
41817;SDS011;27493;51.730;5.294;2022-08-19T12:57:04;7.30;;;5.10;;
41817;SDS011;27493;51.730;5.294;2022-08-19T12:59:29;10.88;;;7.22;;
41817;SDS011;27493;51.730;5.294;2022-08-19T13:01:55;10.85;;;6.95;;
41817;SDS011;27493;51.730;5.294;2022-08-19T13:07:23;16.83;;;9.23;;
41817;SDS011;27493;51.730;5.294;2022-08-19T13:09:50;20.25;;;11.95;;
41817;SDS011;27493;51.730;5.294;2022-08-19T13:12:16;24.85;;;13.35;;
41817;SDS011;27493;51.730;5.294;2022-08-19T13:14:42;22.80;;;14.73;;
41817;SDS011;27493;51.730;5.294;2022-08-19T13:17:09;17.88;;;10.02;;
41817;SDS011;27493;51.730;5.294;2022-08-19T13:19:36;15.75;;;9.93;;
41817;SDS011;27493;51.730;5.294;2022-08-19T13:22:02;13.73;;;8.30;;
41817;SDS011;27493;51.730;5.294;2022-08-19T13:24:27;13.30;;;7.85;;
41817;SDS011;27493;51.730;5.294;2022-08-19T13:26:52;10.73;;;7.25;;
41817;SDS011;27493;51.730;5.294;2022-08-19T13:29:17;11.63;;;7.30;;
41817;SDS011;27493;51.730;5.294;2022-08-19T13:32:01;12.52;;;7.22;;
41817;SDS011;27493;51.730;5.294;2022-08-19T13:34:45;11.98;;;6.43;;
41817;SDS011;27493;51.730;5.294;2022-08-19T13:37:11;11.15;;;6.13;;
41817;SDS011;27493;51.730;5.294;2022-08-19T13:39:36;9.02;;;5.57;;
41817;SDS011;27493;51.730;5.294;2022-08-19T13:42:02;7.85;;;4.45;;
41817;SDS011;27493;51.730;5.294;2022-08-19T13:44:29;10.15;;;4.70;;
41817;SDS011;27493;51.730;5.294;2022-08-19T13:46:54;7.97;;;4.70;;
41817;SDS011;27493;51.730;5.294;2022-08-19T13:49:19;9.07;;;5.90;;
41817;SDS011;27493;51.730;5.294;2022-08-19T13:51:45;9.93;;;6.00;;
41817;SDS011;27493;51.730;5.294;2022-08-19T13:54:11;10.85;;;6.28;;
41817;SDS011;27493;51.730;5.294;2022-08-19T13:56:40;11.80;;;6.95;;
41817;SDS011;27493;51.730;5.294;2022-08-19T13:59:06;12.75;;;8.00;;
41817;SDS011;27493;51.730;5.294;2022-08-19T14:01:31;11.15;;;7.05;;
41817;SDS011;27493;51.730;5.294;2022-08-19T14:03:56;11.55;;;7.13;;
41817;SDS011;27493;51.730;5.294;2022-08-19T14:06:21;12.10;;;6.85;;
41817;SDS011;27493;51.730;5.294;2022-08-19T14:08:47;11.27;;;7.60;;
41817;SDS011;27493;51.730;5.294;2022-08-19T14:11:13;11.75;;;7.20;;
41817;SDS011;27493;51.730;5.294;2022-08-19T14:13:38;10.77;;;6.00;;
41817;SDS011;27493;51.730;5.294;2022-08-19T14:16:07;7.63;;;4.75;;
41817;SDS011;27493;51.730;5.294;2022-08-19T14:18:33;6.85;;;4.45;;
41817;SDS011;27493;51.730;5.294;2022-08-19T14:20:58;8.20;;;4.57;;
41817;SDS011;27493;51.730;5.294;2022-08-19T14:23:23;9.32;;;4.38;;
41817;SDS011;27493;51.730;5.294;2022-08-19T14:25:48;5.72;;;4.20;;
41817;SDS011;27493;51.730;5.294;2022-08-19T14:28:13;7.78;;;5.25;;